sensor_id;sensor_type;location;lat;lon;timestamp;temperature;humidity
20735;DHT22;10528;52.124;5.196;2022-08-06T00:00:19;13.90;99.90
20735;DHT22;10528;52.124;5.196;2022-08-06T00:02:56;13.90;99.90
20735;DHT22;10528;52.124;5.196;2022-08-06T00:05:30;13.80;99.90
20735;DHT22;10528;52.124;5.196;2022-08-06T00:08:05;13.90;99.90
20735;DHT22;10528;52.124;5.196;2022-08-06T00:10:35;14.00;99.90
20735;DHT22;10528;52.124;5.196;2022-08-06T00:13:08;13.90;99.90
20735;DHT22;10528;52.124;5.196;2022-08-06T00:15:40;13.90;99.90
20735;DHT22;10528;52.124;5.196;2022-08-06T00:18:35;13.90;99.90
20735;DHT22;10528;52.124;5.196;2022-08-06T00:21:07;13.80;99.90
20735;DHT22;10528;52.124;5.196;2022-08-06T00:24:02;13.70;99.90
20735;DHT22;10528;52.124;5.196;2022-08-06T00:26:56;13.70;99.90
20735;DHT22;10528;52.124;5.196;2022-08-06T00:29:38;13.70;99.90
20735;DHT22;10528;52.124;5.196;2022-08-06T00:32:13;13.60;99.90
20735;DHT22;10528;52.124;5.196;2022-08-06T00:34:50;13.70;99.90
20735;DHT22;10528;52.124;5.196;2022-08-06T00:37:20;13.60;99.90
20735;DHT22;10528;52.124;5.196;2022-08-06T00:40:14;13.70;99.90
20735;DHT22;10528;52.124;5.196;2022-08-06T00:42:51;13.60;99.90
20735;DHT22;10528;52.124;5.196;2022-08-06T00:45:21;13.50;99.90
20735;DHT22;10528;52.124;5.196;2022-08-06T00:47:51;13.50;99.90
20735;DHT22;10528;52.124;5.196;2022-08-06T00:50:32;13.50;99.90
20735;DHT22;10528;52.124;5.196;2022-08-06T00:53:11;13.50;99.90
20735;DHT22;10528;52.124;5.196;2022-08-06T00:55:53;13.40;99.90
20735;DHT22;10528;52.124;5.196;2022-08-06T00:58:44;13.40;99.90
20735;DHT22;10528;52.124;5.196;2022-08-06T01:01:13;13.40;99.90
20735;DHT22;10528;52.124;5.196;2022-08-06T01:03:45;13.30;99.90
20735;DHT22;10528;52.124;5.196;2022-08-06T01:06:20;13.40;99.90
20735;DHT22;10528;52.124;5.196;2022-08-06T01:09:09;13.40;99.90
20735;DHT22;10528;52.124;5.196;2022-08-06T01:11:43;13.40;99.90
20735;DHT22;10528;52.124;5.196;2022-08-06T01:14:11;13.40;99.90
20735;DHT22;10528;52.124;5.196;2022-08-06T01:17:07;13.30;99.90
20735;DHT22;10528;52.124;5.196;2022-08-06T01:23:38;13.30;99.90
20735;DHT22;10528;52.124;5.196;2022-08-06T01:29:36;13.30;99.90
20735;DHT22;10528;52.124;5.196;2022-08-06T01:32:10;13.30;99.90
20735;DHT22;10528;52.124;5.196;2022-08-06T01:34:52;13.30;99.90
20735;DHT22;10528;52.124;5.196;2022-08-06T01:38:22;13.20;99.90
20735;DHT22;10528;52.124;5.196;2022-08-06T01:41:06;13.20;99.90
20735;DHT22;10528;52.124;5.196;2022-08-06T01:43:38;13.20;99.90
20735;DHT22;10528;52.124;5.196;2022-08-06T01:46:33;13.10;99.90
20735;DHT22;10528;52.124;5.196;2022-08-06T01:49:11;13.10;99.90
20735;DHT22;10528;52.124;5.196;2022-08-06T01:51:59;13.00;99.90
20735;DHT22;10528;52.124;5.196;2022-08-06T01:54:44;13.00;99.90
20735;DHT22;10528;52.124;5.196;2022-08-06T01:57:22;13.00;99.90
20735;DHT22;10528;52.124;5.196;2022-08-06T02:00:11;13.00;99.90
20735;DHT22;10528;52.124;5.196;2022-08-06T02:02:54;13.00;99.90
20735;DHT22;10528;52.124;5.196;2022-08-06T02:05:33;12.90;99.90
20735;DHT22;10528;52.124;5.196;2022-08-06T02:08:22;12.90;99.90
20735;DHT22;10528;52.124;5.196;2022-08-06T02:11:09;12.90;99.90
20735;DHT22;10528;52.124;5.196;2022-08-06T02:14:00;12.90;99.90
20735;DHT22;10528;52.124;5.196;2022-08-06T02:16:39;12.90;99.90
20735;DHT22;10528;52.124;5.196;2022-08-06T02:19:19;12.90;99.90
20735;DHT22;10528;52.124;5.196;2022-08-06T02:22:08;12.80;99.90
20735;DHT22;10528;52.124;5.196;2022-08-06T02:24:38;12.70;99.90
20735;DHT22;10528;52.124;5.196;2022-08-06T02:27:12;12.60;99.90
20735;DHT22;10528;52.124;5.196;2022-08-06T02:29:51;12.70;99.90
20735;DHT22;10528;52.124;5.196;2022-08-06T02:32:32;12.70;99.90
20735;DHT22;10528;52.124;5.196;2022-08-06T02:35:10;12.70;99.90
20735;DHT22;10528;52.124;5.196;2022-08-06T02:37:51;12.70;99.90
20735;DHT22;10528;52.124;5.196;2022-08-06T02:40:43;12.60;99.90
20735;DHT22;10528;52.124;5.196;2022-08-06T02:43:23;12.70;99.90
20735;DHT22;10528;52.124;5.196;2022-08-06T02:46:25;12.60;99.90
20735;DHT22;10528;52.124;5.196;2022-08-06T02:49:19;12.50;99.90
20735;DHT22;10528;52.124;5.196;2022-08-06T02:51:55;12.50;99.90
20735;DHT22;10528;52.124;5.196;2022-08-06T02:55:09;12.50;99.90
20735;DHT22;10528;52.124;5.196;2022-08-06T02:58:22;12.50;99.90
20735;DHT22;10528;52.124;5.196;2022-08-06T03:01:13;12.50;99.90
20735;DHT22;10528;52.124;5.196;2022-08-06T03:03:50;12.50;99.90
20735;DHT22;10528;52.124;5.196;2022-08-06T03:06:30;12.50;99.90
20735;DHT22;10528;52.124;5.196;2022-08-06T03:09:02;12.40;99.90
20735;DHT22;10528;52.124;5.196;2022-08-06T03:11:35;12.40;99.90
20735;DHT22;10528;52.124;5.196;2022-08-06T03:14:08;12.30;99.90
20735;DHT22;10528;52.124;5.196;2022-08-06T03:16:58;12.30;99.90
20735;DHT22;10528;52.124;5.196;2022-08-06T03:19:34;12.40;99.90
20735;DHT22;10528;52.124;5.196;2022-08-06T03:22:27;12.30;99.90
20735;DHT22;10528;52.124;5.196;2022-08-06T03:25:13;12.30;99.90
20735;DHT22;10528;52.124;5.196;2022-08-06T03:27:44;12.20;99.90
20735;DHT22;10528;52.124;5.196;2022-08-06T03:30:16;12.30;99.90
20735;DHT22;10528;52.124;5.196;2022-08-06T03:33:13;12.10;99.90
20735;DHT22;10528;52.124;5.196;2022-08-06T03:36:09;12.20;99.90
20735;DHT22;10528;52.124;5.196;2022-08-06T03:38:56;12.20;99.90
20735;DHT22;10528;52.124;5.196;2022-08-06T03:41:35;12.20;99.90
20735;DHT22;10528;52.124;5.196;2022-08-06T03:44:25;12.20;99.90
20735;DHT22;10528;52.124;5.196;2022-08-06T03:47:05;12.10;99.90
20735;DHT22;10528;52.124;5.196;2022-08-06T03:49:55;12.00;99.90
20735;DHT22;10528;52.124;5.196;2022-08-06T03:52:31;12.00;99.90
20735;DHT22;10528;52.124;5.196;2022-08-06T03:55:05;11.90;99.90
20735;DHT22;10528;52.124;5.196;2022-08-06T03:57:48;11.90;99.90
20735;DHT22;10528;52.124;5.196;2022-08-06T04:00:22;11.90;99.90
20735;DHT22;10528;52.124;5.196;2022-08-06T04:02:56;12.00;99.90
20735;DHT22;10528;52.124;5.196;2022-08-06T04:05:30;12.00;99.90
20735;DHT22;10528;52.124;5.196;2022-08-06T04:08:16;12.00;99.90
20735;DHT22;10528;52.124;5.196;2022-08-06T04:11:02;11.90;99.90
20735;DHT22;10528;52.124;5.196;2022-08-06T04:13:58;11.90;99.90
20735;DHT22;10528;52.124;5.196;2022-08-06T04:16:47;11.90;99.90
20735;DHT22;10528;52.124;5.196;2022-08-06T04:19:18;11.90;99.90
20735;DHT22;10528;52.124;5.196;2022-08-06T04:22:01;11.90;99.90
20735;DHT22;10528;52.124;5.196;2022-08-06T04:24:52;11.80;99.90
20735;DHT22;10528;52.124;5.196;2022-08-06T04:27:26;11.90;99.90
20735;DHT22;10528;52.124;5.196;2022-08-06T04:30:03;11.80;99.90
20735;DHT22;10528;52.124;5.196;2022-08-06T04:32:35;11.80;99.90
20735;DHT22;10528;52.124;5.196;2022-08-06T04:35:22;11.90;99.90
20735;DHT22;10528;52.124;5.196;2022-08-06T04:38:20;11.90;99.90
20735;DHT22;10528;52.124;5.196;2022-08-06T04:40:56;11.90;99.90
20735;DHT22;10528;52.124;5.196;2022-08-06T04:43:42;11.90;99.90
20735;DHT22;10528;52.124;5.196;2022-08-06T04:46:23;12.00;99.90
20735;DHT22;10528;52.124;5.196;2022-08-06T04:48:53;12.00;99.90
20735;DHT22;10528;52.124;5.196;2022-08-06T04:51:30;12.00;99.90
20735;DHT22;10528;52.124;5.196;2022-08-06T04:54:22;12.10;99.90
20735;DHT22;10528;52.124;5.196;2022-08-06T04:56:59;12.10;99.90
20735;DHT22;10528;52.124;5.196;2022-08-06T04:59:46;12.20;99.90
20735;DHT22;10528;52.124;5.196;2022-08-06T05:02:17;12.20;99.90
20735;DHT22;10528;52.124;5.196;2022-08-06T05:04:58;12.20;99.90
20735;DHT22;10528;52.124;5.196;2022-08-06T05:07:29;12.30;99.90
20735;DHT22;10528;52.124;5.196;2022-08-06T05:10:20;12.30;99.90
20735;DHT22;10528;52.124;5.196;2022-08-06T05:12:55;12.30;99.90
20735;DHT22;10528;52.124;5.196;2022-08-06T05:15:40;12.40;99.90
20735;DHT22;10528;52.124;5.196;2022-08-06T05:18:34;12.40;99.90
20735;DHT22;10528;52.124;5.196;2022-08-06T05:21:38;12.50;99.90
20735;DHT22;10528;52.124;5.196;2022-08-06T05:24:34;12.60;99.90
20735;DHT22;10528;52.124;5.196;2022-08-06T05:27:17;12.80;99.90
20735;DHT22;10528;52.124;5.196;2022-08-06T05:29:52;12.80;99.90
20735;DHT22;10528;52.124;5.196;2022-08-06T05:32:27;12.90;99.90
20735;DHT22;10528;52.124;5.196;2022-08-06T05:35:08;13.00;99.90
20735;DHT22;10528;52.124;5.196;2022-08-06T05:37:46;13.00;99.90
20735;DHT22;10528;52.124;5.196;2022-08-06T05:40:40;13.10;99.90
20735;DHT22;10528;52.124;5.196;2022-08-06T05:43:23;13.10;99.90
20735;DHT22;10528;52.124;5.196;2022-08-06T05:46:19;13.20;99.90
20735;DHT22;10528;52.124;5.196;2022-08-06T05:52:36;13.40;99.90
20735;DHT22;10528;52.124;5.196;2022-08-06T05:55:34;13.50;99.90
20735;DHT22;10528;52.124;5.196;2022-08-06T05:58:44;13.70;99.90
20735;DHT22;10528;52.124;5.196;2022-08-06T06:01:23;14.50;99.90
20735;DHT22;10528;52.124;5.196;2022-08-06T06:03:57;15.40;99.90
20735;DHT22;10528;52.124;5.196;2022-08-06T06:06:32;16.10;99.90
20735;DHT22;10528;52.124;5.196;2022-08-06T06:09:00;16.50;99.90
20735;DHT22;10528;52.124;5.196;2022-08-06T06:11:41;17.00;99.90
20735;DHT22;10528;52.124;5.196;2022-08-06T06:14:40;17.20;99.90
20735;DHT22;10528;52.124;5.196;2022-08-06T06:17:25;17.40;99.90
20735;DHT22;10528;52.124;5.196;2022-08-06T06:20:35;17.70;99.90
20735;DHT22;10528;52.124;5.196;2022-08-06T06:23:40;18.00;99.90
20735;DHT22;10528;52.124;5.196;2022-08-06T06:29:39;18.90;99.90
20735;DHT22;10528;52.124;5.196;2022-08-06T06:32:57;19.20;99.90
20735;DHT22;10528;52.124;5.196;2022-08-06T06:35:56;19.70;99.90
20735;DHT22;10528;52.124;5.196;2022-08-06T06:41:58;19.80;99.90
20735;DHT22;10528;52.124;5.196;2022-08-06T06:44:41;20.50;99.90
20735;DHT22;10528;52.124;5.196;2022-08-06T06:47:47;20.70;99.90
20735;DHT22;10528;52.124;5.196;2022-08-06T06:50:34;20.90;99.90
20735;DHT22;10528;52.124;5.196;2022-08-06T06:53:10;20.90;99.90
20735;DHT22;10528;52.124;5.196;2022-08-06T06:55:47;21.10;99.90
20735;DHT22;10528;52.124;5.196;2022-08-06T06:58:57;21.30;99.90
20735;DHT22;10528;52.124;5.196;2022-08-06T07:01:46;21.40;99.90
20735;DHT22;10528;52.124;5.196;2022-08-06T07:04:38;21.30;99.90
20735;DHT22;10528;52.124;5.196;2022-08-06T07:07:10;20.90;99.90
20735;DHT22;10528;52.124;5.196;2022-08-06T07:09:49;20.70;99.90
20735;DHT22;10528;52.124;5.196;2022-08-06T07:12:29;21.20;99.90
20735;DHT22;10528;52.124;5.196;2022-08-06T07:15:06;21.60;99.90
20735;DHT22;10528;52.124;5.196;2022-08-06T07:17:45;21.60;99.90
20735;DHT22;10528;52.124;5.196;2022-08-06T07:20:23;22.20;99.90
20735;DHT22;10528;52.124;5.196;2022-08-06T07:23:14;22.30;99.90
20735;DHT22;10528;52.124;5.196;2022-08-06T07:26:05;22.60;99.90
20735;DHT22;10528;52.124;5.196;2022-08-06T07:28:55;22.50;99.90
20735;DHT22;10528;52.124;5.196;2022-08-06T07:31:59;22.10;99.90
20735;DHT22;10528;52.124;5.196;2022-08-06T07:34:35;21.20;99.90
20735;DHT22;10528;52.124;5.196;2022-08-06T07:37:10;21.10;99.90
20735;DHT22;10528;52.124;5.196;2022-08-06T07:39:53;21.00;99.90
20735;DHT22;10528;52.124;5.196;2022-08-06T07:42:24;20.80;99.90
20735;DHT22;10528;52.124;5.196;2022-08-06T07:45:01;21.10;99.90
20735;DHT22;10528;52.124;5.196;2022-08-06T07:47:43;21.00;99.90
20735;DHT22;10528;52.124;5.196;2022-08-06T07:50:23;21.30;99.90
20735;DHT22;10528;52.124;5.196;2022-08-06T07:52:56;21.70;99.90
20735;DHT22;10528;52.124;5.196;2022-08-06T07:55:34;22.00;99.90
20735;DHT22;10528;52.124;5.196;2022-08-06T07:58:10;21.80;99.90
20735;DHT22;10528;52.124;5.196;2022-08-06T08:00:45;21.50;99.90
20735;DHT22;10528;52.124;5.196;2022-08-06T08:03:17;21.90;99.90
20735;DHT22;10528;52.124;5.196;2022-08-06T08:06:24;21.80;99.90
20735;DHT22;10528;52.124;5.196;2022-08-06T08:09:15;21.80;99.90
20735;DHT22;10528;52.124;5.196;2022-08-06T08:12:00;21.10;99.90
20735;DHT22;10528;52.124;5.196;2022-08-06T08:14:56;21.50;99.90
20735;DHT22;10528;52.124;5.196;2022-08-06T08:17:32;21.40;99.90
20735;DHT22;10528;52.124;5.196;2022-08-06T08:20:29;21.30;99.90
20735;DHT22;10528;52.124;5.196;2022-08-06T08:23:12;21.10;99.90
20735;DHT22;10528;52.124;5.196;2022-08-06T08:26:13;21.00;99.90
20735;DHT22;10528;52.124;5.196;2022-08-06T08:28:42;21.20;99.90
20735;DHT22;10528;52.124;5.196;2022-08-06T08:31:17;21.40;99.90
20735;DHT22;10528;52.124;5.196;2022-08-06T08:33:52;22.00;99.90
20735;DHT22;10528;52.124;5.196;2022-08-06T08:36:26;22.20;99.90
20735;DHT22;10528;52.124;5.196;2022-08-06T08:38:56;22.70;99.90
20735;DHT22;10528;52.124;5.196;2022-08-06T08:41:44;22.90;99.90
20735;DHT22;10528;52.124;5.196;2022-08-06T08:44:24;22.90;99.90
20735;DHT22;10528;52.124;5.196;2022-08-06T08:47:03;22.10;99.90
20735;DHT22;10528;52.124;5.196;2022-08-06T08:49:40;22.10;99.90
20735;DHT22;10528;52.124;5.196;2022-08-06T08:52:18;21.60;99.90
20735;DHT22;10528;52.124;5.196;2022-08-06T08:54:51;21.40;99.90
20735;DHT22;10528;52.124;5.196;2022-08-06T08:57:21;21.50;99.90
20735;DHT22;10528;52.124;5.196;2022-08-06T09:00:09;21.50;99.90
20735;DHT22;10528;52.124;5.196;2022-08-06T09:02:41;21.70;99.90
20735;DHT22;10528;52.124;5.196;2022-08-06T09:05:17;22.10;99.90
20735;DHT22;10528;52.124;5.196;2022-08-06T09:07:44;22.30;99.90
20735;DHT22;10528;52.124;5.196;2022-08-06T09:10:27;22.40;99.90
20735;DHT22;10528;52.124;5.196;2022-08-06T09:12:59;22.60;99.90
20735;DHT22;10528;52.124;5.196;2022-08-06T09:15:27;22.70;99.90
20735;DHT22;10528;52.124;5.196;2022-08-06T09:18:05;22.60;99.90
20735;DHT22;10528;52.124;5.196;2022-08-06T09:20:53;22.50;99.90
20735;DHT22;10528;52.124;5.196;2022-08-06T09:23:23;22.20;99.90
20735;DHT22;10528;52.124;5.196;2022-08-06T09:25:54;21.80;99.90
20735;DHT22;10528;52.124;5.196;2022-08-06T09:28:30;21.60;99.90
20735;DHT22;10528;52.124;5.196;2022-08-06T09:31:07;21.50;99.90
20735;DHT22;10528;52.124;5.196;2022-08-06T09:34:06;21.40;99.90
20735;DHT22;10528;52.124;5.196;2022-08-06T09:36:53;21.40;99.90
20735;DHT22;10528;52.124;5.196;2022-08-06T09:39:38;21.30;99.90
20735;DHT22;10528;52.124;5.196;2022-08-06T09:42:44;21.70;99.90
20735;DHT22;10528;52.124;5.196;2022-08-06T09:45:15;21.90;99.90
20735;DHT22;10528;52.124;5.196;2022-08-06T09:47:45;22.30;99.90
20735;DHT22;10528;52.124;5.196;2022-08-06T09:50:56;22.20;99.90
20735;DHT22;10528;52.124;5.196;2022-08-06T09:53:25;22.60;99.90
20735;DHT22;10528;52.124;5.196;2022-08-06T09:56:15;22.90;99.90
20735;DHT22;10528;52.124;5.196;2022-08-06T09:58:43;23.30;99.90
20735;DHT22;10528;52.124;5.196;2022-08-06T10:01:15;23.20;99.90
20735;DHT22;10528;52.124;5.196;2022-08-06T10:03:49;22.90;99.90
20735;DHT22;10528;52.124;5.196;2022-08-06T10:07:00;22.40;99.90
20735;DHT22;10528;52.124;5.196;2022-08-06T10:09:34;22.20;99.90
20735;DHT22;10528;52.124;5.196;2022-08-06T10:12:22;22.00;99.90
20735;DHT22;10528;52.124;5.196;2022-08-06T10:14:53;21.70;99.90
20735;DHT22;10528;52.124;5.196;2022-08-06T10:17:22;21.40;99.90
20735;DHT22;10528;52.124;5.196;2022-08-06T10:20:10;21.30;99.90
20735;DHT22;10528;52.124;5.196;2022-08-06T10:22:51;21.70;99.90
20735;DHT22;10528;52.124;5.196;2022-08-06T10:25:24;22.20;99.90
20735;DHT22;10528;52.124;5.196;2022-08-06T10:27:56;22.10;99.90
20735;DHT22;10528;52.124;5.196;2022-08-06T10:30:27;22.60;99.90
20735;DHT22;10528;52.124;5.196;2022-08-06T10:33:10;22.30;99.90
20735;DHT22;10528;52.124;5.196;2022-08-06T10:35:51;21.70;99.90
20735;DHT22;10528;52.124;5.196;2022-08-06T10:38:24;21.60;99.90
20735;DHT22;10528;52.124;5.196;2022-08-06T10:41:09;21.60;99.90
20735;DHT22;10528;52.124;5.196;2022-08-06T10:43:57;21.40;99.90
20735;DHT22;10528;52.124;5.196;2022-08-06T10:46:29;21.20;99.90
20735;DHT22;10528;52.124;5.196;2022-08-06T10:48:58;21.00;99.90
20735;DHT22;10528;52.124;5.196;2022-08-06T10:51:48;21.10;99.90
20735;DHT22;10528;52.124;5.196;2022-08-06T10:54:23;21.20;99.90
20735;DHT22;10528;52.124;5.196;2022-08-06T10:56:52;21.60;99.90
20735;DHT22;10528;52.124;5.196;2022-08-06T10:59:21;21.60;99.90
20735;DHT22;10528;52.124;5.196;2022-08-06T11:05:14;21.80;99.90
20735;DHT22;10528;52.124;5.196;2022-08-06T11:08:23;22.10;99.90
20735;DHT22;10528;52.124;5.196;2022-08-06T11:11:26;22.30;99.90
20735;DHT22;10528;52.124;5.196;2022-08-06T11:14:09;22.40;99.90
20735;DHT22;10528;52.124;5.196;2022-08-06T11:16:54;22.40;99.60
20735;DHT22;10528;52.124;5.196;2022-08-06T11:19:46;22.50;99.80
20735;DHT22;10528;52.124;5.196;2022-08-06T11:22:36;22.50;98.60
20735;DHT22;10528;52.124;5.196;2022-08-06T11:25:45;22.60;99.80
20735;DHT22;10528;52.124;5.196;2022-08-06T11:28:18;22.60;99.90
20735;DHT22;10528;52.124;5.196;2022-08-06T11:30:57;22.30;99.80
20735;DHT22;10528;52.124;5.196;2022-08-06T11:36:03;22.80;99.90
20735;DHT22;10528;52.124;5.196;2022-08-06T11:44:15;22.30;99.90
20735;DHT22;10528;52.124;5.196;2022-08-06T11:46:48;22.20;99.90
20735;DHT22;10528;52.124;5.196;2022-08-06T11:50:07;22.20;99.90
20735;DHT22;10528;52.124;5.196;2022-08-06T11:55:08;22.40;99.90
20735;DHT22;10528;52.124;5.196;2022-08-06T11:58:15;22.20;99.90
20735;DHT22;10528;52.124;5.196;2022-08-06T12:00:58;22.20;99.90
20735;DHT22;10528;52.124;5.196;2022-08-06T12:03:46;22.50;99.90
20735;DHT22;10528;52.124;5.196;2022-08-06T12:06:24;22.90;99.90
20735;DHT22;10528;52.124;5.196;2022-08-06T12:09:08;23.10;99.90
20735;DHT22;10528;52.124;5.196;2022-08-06T12:11:48;22.60;99.20
20735;DHT22;10528;52.124;5.196;2022-08-06T12:14:44;22.80;99.90
20735;DHT22;10528;52.124;5.196;2022-08-06T12:17:17;23.00;99.90
20735;DHT22;10528;52.124;5.196;2022-08-06T12:19:48;22.90;99.30
20735;DHT22;10528;52.124;5.196;2022-08-06T12:22:30;22.60;98.60
20735;DHT22;10528;52.124;5.196;2022-08-06T12:24:59;22.80;99.90
20735;DHT22;10528;52.124;5.196;2022-08-06T12:27:39;23.00;98.90
20735;DHT22;10528;52.124;5.196;2022-08-06T12:30:16;23.20;96.80
20735;DHT22;10528;52.124;5.196;2022-08-06T12:33:03;23.30;97.40
20735;DHT22;10528;52.124;5.196;2022-08-06T12:35:56;23.30;97.40
20735;DHT22;10528;52.124;5.196;2022-08-06T12:38:26;23.20;99.90
20735;DHT22;10528;52.124;5.196;2022-08-06T12:41:01;23.40;99.90
20735;DHT22;10528;52.124;5.196;2022-08-06T12:43:41;23.40;97.40
20735;DHT22;10528;52.124;5.196;2022-08-06T12:46:23;23.60;96.10
20735;DHT22;10528;52.124;5.196;2022-08-06T12:48:55;23.50;95.20
20735;DHT22;10528;52.124;5.196;2022-08-06T12:51:22;23.60;98.80
20735;DHT22;10528;52.124;5.196;2022-08-06T12:54:00;23.70;99.00
20735;DHT22;10528;52.124;5.196;2022-08-06T12:56:32;23.60;97.30
20735;DHT22;10528;52.124;5.196;2022-08-06T12:59:08;23.80;97.50
20735;DHT22;10528;52.124;5.196;2022-08-06T13:01:51;23.80;97.70
20735;DHT22;10528;52.124;5.196;2022-08-06T13:04:44;23.60;96.40
20735;DHT22;10528;52.124;5.196;2022-08-06T13:07:15;23.30;96.10
20735;DHT22;10528;52.124;5.196;2022-08-06T13:09:47;23.30;96.40
20735;DHT22;10528;52.124;5.196;2022-08-06T13:12:34;22.90;96.20
20735;DHT22;10528;52.124;5.196;2022-08-06T13:15:25;22.70;95.60
20735;DHT22;10528;52.124;5.196;2022-08-06T13:18:13;22.50;95.10
20735;DHT22;10528;52.124;5.196;2022-08-06T13:21:03;22.60;97.50
20735;DHT22;10528;52.124;5.196;2022-08-06T13:23:46;23.20;96.30
20735;DHT22;10528;52.124;5.196;2022-08-06T13:26:20;23.10;96.30
20735;DHT22;10528;52.124;5.196;2022-08-06T13:29:14;23.10;96.40
20735;DHT22;10528;52.124;5.196;2022-08-06T13:32:11;23.00;96.20
20735;DHT22;10528;52.124;5.196;2022-08-06T13:35:01;23.40;99.20
20735;DHT22;10528;52.124;5.196;2022-08-06T13:37:50;23.50;95.20
20735;DHT22;10528;52.124;5.196;2022-08-06T13:40:44;23.60;96.20
20735;DHT22;10528;52.124;5.196;2022-08-06T13:43:41;23.40;94.90
20735;DHT22;10528;52.124;5.196;2022-08-06T13:46:24;23.30;93.90
20735;DHT22;10528;52.124;5.196;2022-08-06T13:48:57;23.20;95.40
20735;DHT22;10528;52.124;5.196;2022-08-06T13:51:30;23.20;95.40
20735;DHT22;10528;52.124;5.196;2022-08-06T13:54:02;23.30;95.00
20735;DHT22;10528;52.124;5.196;2022-08-06T13:56:47;23.10;95.00
20735;DHT22;10528;52.124;5.196;2022-08-06T13:59:22;23.10;95.30
20735;DHT22;10528;52.124;5.196;2022-08-06T14:02:09;22.70;94.50
20735;DHT22;10528;52.124;5.196;2022-08-06T14:04:40;22.70;94.50
20735;DHT22;10528;52.124;5.196;2022-08-06T14:07:16;22.80;94.90
20735;DHT22;10528;52.124;5.196;2022-08-06T14:09:43;23.00;94.00
20735;DHT22;10528;52.124;5.196;2022-08-06T14:12:32;22.90;95.00
20735;DHT22;10528;52.124;5.196;2022-08-06T14:14:59;22.90;93.80
20735;DHT22;10528;52.124;5.196;2022-08-06T14:17:29;23.00;94.00
20735;DHT22;10528;52.124;5.196;2022-08-06T14:20:01;23.10;93.70
20735;DHT22;10528;52.124;5.196;2022-08-06T14:22:47;23.30;93.90
20735;DHT22;10528;52.124;5.196;2022-08-06T14:25:15;23.30;93.40
20735;DHT22;10528;52.124;5.196;2022-08-06T14:27:42;23.20;93.90
20735;DHT22;10528;52.124;5.196;2022-08-06T14:30:12;23.10;93.60
20735;DHT22;10528;52.124;5.196;2022-08-06T14:33:03;23.20;94.00
20735;DHT22;10528;52.124;5.196;2022-08-06T14:35:45;23.30;94.00
20735;DHT22;10528;52.124;5.196;2022-08-06T14:38:19;23.50;94.40
20735;DHT22;10528;52.124;5.196;2022-08-06T14:40:57;23.60;96.30
20735;DHT22;10528;52.124;5.196;2022-08-06T14:43:42;23.60;96.30
20735;DHT22;10528;52.124;5.196;2022-08-06T14:46:28;23.70;96.70
20735;DHT22;10528;52.124;5.196;2022-08-06T14:48:58;23.70;95.30
20735;DHT22;10528;52.124;5.196;2022-08-06T14:51:35;23.70;95.70
20735;DHT22;10528;52.124;5.196;2022-08-06T14:54:22;23.50;96.10
20735;DHT22;10528;52.124;5.196;2022-08-06T14:56:59;23.50;96.40
20735;DHT22;10528;52.124;5.196;2022-08-06T14:59:28;23.60;96.40
20735;DHT22;10528;52.124;5.196;2022-08-06T15:02:08;23.60;97.70
20735;DHT22;10528;52.124;5.196;2022-08-06T15:04:36;23.70;95.70
20735;DHT22;10528;52.124;5.196;2022-08-06T15:07:03;23.70;95.90
20735;DHT22;10528;52.124;5.196;2022-08-06T15:09:31;23.80;97.70
20735;DHT22;10528;52.124;5.196;2022-08-06T15:12:18;23.90;96.90
20735;DHT22;10528;52.124;5.196;2022-08-06T15:15:06;23.50;96.10
20735;DHT22;10528;52.124;5.196;2022-08-06T15:17:40;23.50;96.40
20735;DHT22;10528;52.124;5.196;2022-08-06T15:20:27;23.70;96.80
20735;DHT22;10528;52.124;5.196;2022-08-06T15:22:54;23.70;98.00
20735;DHT22;10528;52.124;5.196;2022-08-06T15:25:23;23.70;96.60
20735;DHT22;10528;52.124;5.196;2022-08-06T15:28:10;23.50;95.40
20735;DHT22;10528;52.124;5.196;2022-08-06T15:30:38;23.40;95.20
20735;DHT22;10528;52.124;5.196;2022-08-06T15:33:05;23.40;96.10
20735;DHT22;10528;52.124;5.196;2022-08-06T15:35:38;23.60;97.30
20735;DHT22;10528;52.124;5.196;2022-08-06T15:38:23;23.50;96.20
20735;DHT22;10528;52.124;5.196;2022-08-06T15:40:53;23.50;95.30
20735;DHT22;10528;52.124;5.196;2022-08-06T15:43:21;23.50;98.20
20735;DHT22;10528;52.124;5.196;2022-08-06T15:45:55;23.70;97.60
20735;DHT22;10528;52.124;5.196;2022-08-06T15:48:27;23.70;96.40
20735;DHT22;10528;52.124;5.196;2022-08-06T15:50:56;23.60;96.90
20735;DHT22;10528;52.124;5.196;2022-08-06T15:53:44;23.70;97.80
20735;DHT22;10528;52.124;5.196;2022-08-06T15:56:23;23.70;96.50
20735;DHT22;10528;52.124;5.196;2022-08-06T15:59:11;23.70;97.60
20735;DHT22;10528;52.124;5.196;2022-08-06T16:01:41;23.70;96.20
20735;DHT22;10528;52.124;5.196;2022-08-06T16:04:29;23.70;98.30
20735;DHT22;10528;52.124;5.196;2022-08-06T16:07:04;23.60;96.80
20735;DHT22;10528;52.124;5.196;2022-08-06T16:09:35;23.70;97.50
20735;DHT22;10528;52.124;5.196;2022-08-06T16:12:23;23.70;98.50
20735;DHT22;10528;52.124;5.196;2022-08-06T16:14:51;23.50;96.50
20735;DHT22;10528;52.124;5.196;2022-08-06T16:17:22;23.30;97.50
20735;DHT22;10528;52.124;5.196;2022-08-06T16:20:10;23.50;97.60
20735;DHT22;10528;52.124;5.196;2022-08-06T16:22:46;23.20;96.60
20735;DHT22;10528;52.124;5.196;2022-08-06T16:25:14;23.50;98.00
20735;DHT22;10528;52.124;5.196;2022-08-06T16:27:42;23.50;97.10
20735;DHT22;10528;52.124;5.196;2022-08-06T16:30:11;23.50;97.70
20735;DHT22;10528;52.124;5.196;2022-08-06T16:32:40;23.40;97.90
20735;DHT22;10528;52.124;5.196;2022-08-06T16:35:11;23.50;97.80
20735;DHT22;10528;52.124;5.196;2022-08-06T16:37:41;23.30;98.50
20735;DHT22;10528;52.124;5.196;2022-08-06T16:40:08;23.30;97.70
20735;DHT22;10528;52.124;5.196;2022-08-06T16:42:36;23.40;98.40
20735;DHT22;10528;52.124;5.196;2022-08-06T16:45:05;23.50;98.90
20735;DHT22;10528;52.124;5.196;2022-08-06T16:47:41;23.30;97.80
20735;DHT22;10528;52.124;5.196;2022-08-06T16:50:28;23.30;99.30
20735;DHT22;10528;52.124;5.196;2022-08-06T16:53:07;23.20;99.40
20735;DHT22;10528;52.124;5.196;2022-08-06T16:55:55;23.00;97.80
20735;DHT22;10528;52.124;5.196;2022-08-06T16:58:25;23.00;98.30
20735;DHT22;10528;52.124;5.196;2022-08-06T17:01:07;22.90;97.10
20735;DHT22;10528;52.124;5.196;2022-08-06T17:03:55;22.70;98.80
20735;DHT22;10528;52.124;5.196;2022-08-06T17:06:27;23.10;98.60
20735;DHT22;10528;52.124;5.196;2022-08-06T17:08:59;23.20;99.60
20735;DHT22;10528;52.124;5.196;2022-08-06T17:11:27;23.20;99.00
20735;DHT22;10528;52.124;5.196;2022-08-06T17:14:15;22.90;98.40
20735;DHT22;10528;52.124;5.196;2022-08-06T17:16:46;23.10;99.80
20735;DHT22;10528;52.124;5.196;2022-08-06T17:19:14;23.20;99.50
20735;DHT22;10528;52.124;5.196;2022-08-06T17:22:02;23.00;99.90
20735;DHT22;10528;52.124;5.196;2022-08-06T17:24:31;23.20;99.90
20735;DHT22;10528;52.124;5.196;2022-08-06T17:27:05;23.00;99.00